Time;durP1;ratioP1;P1;durP2;ratioP2;P2;SDS_P1;SDS_P2;PMS_P1;PMS_P2;Temp;Humidity;BMP_temperature;BMP_pressure;BME280_temperature;BME280_humidity;BME280_pressure;Samples;Min_cycle;Max_cycle;Signal;HPM_P1;HPM_P2
2022/06/28 00:01:38;;;;;;;6.05;4.70;;;25.40;99.20;;;;;;2585780;54;20274;31
2022/06/28 00:04:13;;;;;;;6.20;5.25;;;25.40;98.90;;;;;;2585767;54;20968;31
2022/06/28 00:06:50;;;;;;;7.43;5.78;;;25.40;99.40;;;;;;2604228;46;20932;31
2022/06/28 00:12:14;;;;;;;7.95;5.05;;;25.40;99.60;;;;;;2604287;46;20054;31
2022/06/28 00:17:37;;;;;;;10.50;5.27;;;25.20;99.90;;;;;;2683932;39;20461;31
2022/06/28 00:20:11;;;;;;;7.78;5.20;;;25.20;99.90;;;;;;2585834;54;21379;31
2022/06/28 00:22:49;;;;;;;8.17;5.43;;;25.20;99.90;;;;;;2604520;46;20935;31
2022/06/28 00:25:23;;;;;;;10.30;5.65;;;25.20;99.90;;;;;;2585566;54;20231;31
2022/06/28 00:27:57;;;;;;;5.97;4.80;;;25.00;99.90;;;;;;2585711;54;21012;31
2022/06/28 00:30:33;;;;;;;7.10;5.40;;;25.00;99.90;;;;;;2683702;39;20708;31
2022/06/28 00:33:07;;;;;;;8.73;5.37;;;25.00;99.90;;;;;;2585530;54;20329;31
2022/06/28 00:35:42;;;;;;;6.55;4.80;;;24.90;99.90;;;;;;2604191;46;21140;31
2022/06/28 00:38:18;;;;;;;6.05;5.40;;;24.90;99.90;;;;;;2584786;54;20053;31
2022/06/28 00:40:54;;;;;;;6.28;4.70;;;24.90;99.90;;;;;;2585546;54;20995;31
2022/06/28 00:43:33;;;;;;;5.80;4.70;;;24.90;99.90;;;;;;2584603;54;20593;31
2022/06/28 00:46:10;;;;;;;5.55;4.45;;;24.90;99.90;;;;;;2585807;54;20026;31
2022/06/28 00:48:45;;;;;;;7.20;4.80;;;25.00;99.90;;;;;;2604395;46;20058;31
2022/06/28 00:51:21;;;;;;;5.70;5.10;;;24.80;99.90;;;;;;2585456;54;20909;31
2022/06/28 00:53:55;;;;;;;6.35;4.55;;;24.90;99.90;;;;;;2585284;54;20030;31
2022/06/28 00:56:31;;;;;;;7.87;4.70;;;24.90;99.90;;;;;;2585676;54;21006;31
2022/06/28 00:59:06;;;;;;;7.57;5.10;;;24.80;99.90;;;;;;2585565;54;20313;31
2022/06/28 01:01:43;;;;;;;6.07;4.45;;;24.90;99.90;;;;;;2603955;46;20062;31
2022/06/28 01:04:18;;;;;;;8.80;4.70;;;24.90;99.90;;;;;;2604111;46;20912;31
2022/06/28 01:06:52;;;;;;;6.35;4.75;;;25.00;99.90;;;;;;2585837;54;22451;31
2022/06/28 01:09:27;;;;;;;4.88;4.38;;;25.00;99.90;;;;;;2603712;46;21143;31
2022/06/28 01:12:02;;;;;;;7.00;5.75;;;25.10;99.90;;;;;;2682997;39;21479;31
2022/06/28 01:14:38;;;;;;;6.03;5.03;;;25.10;99.90;;;;;;2603850;46;22402;31
2022/06/28 01:17:38;;;;;;;7.68;5.15;;;25.10;99.90;;;;;;2585545;54;20026;31
2022/06/28 01:20:39;;;;;;;6.30;4.47;;;25.10;99.90;;;;;;2585516;54;20860;31
2022/06/28 01:23:33;;;;;;;7.20;5.40;;;25.10;99.90;;;;;;2585625;54;21536;31
2022/06/28 01:26:30;;;;;;;6.32;5.65;;;25.10;99.90;;;;;;2585402;54;21194;31
2022/06/28 01:29:04;;;;;;;7.28;6.43;;;25.10;99.90;;;;;;2584545;54;20765;31
2022/06/28 01:31:48;;;;;;;8.55;5.70;;;25.10;99.90;;;;;;2683664;39;22394;31
2022/06/28 01:34:22;;;;;;;11.75;6.57;;;25.00;99.90;;;;;;2683800;39;21070;31
2022/06/28 01:36:58;;;;;;;6.70;6.05;;;25.00;99.90;;;;;;2585469;54;20940;31
2022/06/28 01:39:37;;;;;;;6.25;5.65;;;25.10;99.90;;;;;;2585406;54;20807;31
2022/06/28 01:42:11;;;;;;;6.72;5.65;;;25.10;99.90;;;;;;2683870;39;21046;31
2022/06/28 01:44:47;;;;;;;6.38;5.30;;;25.10;99.90;;;;;;2585656;54;20030;31
2022/06/28 01:47:37;;;;;;;5.75;5.25;;;25.10;99.90;;;;;;2604281;46;21104;31
2022/06/28 01:50:34;;;;;;;9.07;5.53;;;25.10;99.90;;;;;;2585664;54;20056;31
2022/06/28 01:53:10;;;;;;;5.50;5.00;;;25.10;99.90;;;;;;2585391;54;20049;31
2022/06/28 01:56:08;;;;;;;6.25;5.65;;;25.10;99.90;;;;;;2585214;54;20957;31
2022/06/28 01:59:01;;;;;;;8.23;5.20;;;25.10;99.90;;;;;;2585640;54;20053;31
2022/06/28 02:01:55;;;;;;;6.40;5.45;;;25.20;99.90;;;;;;2585236;54;20871;31
2022/06/28 02:04:34;;;;;;;6.25;5.45;;;25.00;99.90;;;;;;2585359;54;20923;31
2022/06/28 02:07:10;;;;;;;6.35;5.32;;;25.10;99.90;;;;;;2585282;54;20979;31
2022/06/28 02:09:48;;;;;;;6.20;5.10;;;25.10;99.90;;;;;;2585168;54;20910;31
2022/06/28 02:12:28;;;;;;;6.97;5.80;;;25.10;99.90;;;;;;2683160;39;21119;31
2022/06/28 02:15:01;;;;;;;5.60;4.90;;;25.10;99.90;;;;;;2603638;47;20050;31
2022/06/28 02:17:37;;;;;;;5.60;5.05;;;25.10;99.90;;;;;;2585536;54;20038;31
2022/06/28 02:20:15;;;;;;;6.07;5.15;;;25.00;99.90;;;;;;2585203;54;20046;31
2022/06/28 02:25:27;;;;;;;7.40;5.25;;;25.00;99.90;;;;;;2585269;54;20037;31
2022/06/28 02:28:04;;;;;;;8.20;4.75;;;25.00;99.90;;;;;;2603807;46;21124;31
2022/06/28 02:30:38;;;;;;;10.10;5.20;;;25.10;99.90;;;;;;2584322;54;20826;31
2022/06/28 02:33:12;;;;;;;6.70;4.78;;;24.90;99.90;;;;;;2602786;46;20120;31
2022/06/28 02:41:23;;;;;;;7.95;5.30;;;24.90;99.90;;;;;;2585398;54;20945;31
2022/06/28 02:44:02;;;;;;;6.30;5.23;;;24.80;99.90;;;;;;2603721;46;20031;31
2022/06/28 02:46:37;;;;;;;7.47;5.37;;;24.90;99.90;;;;;;2585247;54;21203;31
2022/06/28 02:49:13;;;;;;;6.30;5.70;;;24.80;99.90;;;;;;2585151;54;20237;31
2022/06/28 02:51:47;;;;;;;7.15;6.20;;;24.90;99.90;;;;;;2585358;54;20920;31
2022/06/28 02:54:20;;;;;;;6.20;5.60;;;24.80;99.90;;;;;;2584569;54;20032;31
2022/06/28 02:56:56;;;;;;;6.45;5.50;;;24.80;99.90;;;;;;2584265;54;20602;31
2022/06/28 02:59:37;;;;;;;6.72;5.95;;;24.70;99.90;;;;;;2603348;46;20027;31
2022/06/28 03:02:15;;;;;;;6.30;5.70;;;24.90;99.90;;;;;;2585069;54;20026;31
2022/06/28 03:04:55;;;;;;;11.63;5.50;;;24.70;99.90;;;;;;2584167;54;20230;31
2022/06/28 03:07:30;;;;;;;6.00;5.40;;;24.70;99.90;;;;;;2584378;54;20937;31
2022/06/28 03:10:07;;;;;;;5.95;5.35;;;24.70;99.90;;;;;;2584331;54;20035;31
2022/06/28 03:12:42;;;;;;;7.57;5.73;;;24.60;99.90;;;;;;2603673;46;22519;31
2022/06/28 03:15:21;;;;;;;6.60;6.00;;;24.60;99.90;;;;;;2585285;54;20049;31
2022/06/28 03:18:04;;;;;;;8.20;5.55;;;24.50;99.90;;;;;;2585173;54;20070;31
2022/06/28 03:20:38;;;;;;;7.03;5.88;;;24.40;99.90;;;;;;2585318;54;20106;31
2022/06/28 03:23:16;;;;;;;10.90;5.53;;;24.40;99.90;;;;;;2585278;54;20078;31
2022/06/28 03:25:53;;;;;;;6.57;5.97;;;24.30;99.90;;;;;;2585448;54;20033;31
2022/06/28 03:28:28;;;;;;;9.30;6.30;;;24.40;99.90;;;;;;2585105;54;20946;31
2022/06/28 03:31:06;;;;;;;8.77;5.57;;;24.30;99.90;;;;;;2603762;46;22426;31
2022/06/28 03:33:40;;;;;;;6.40;5.70;;;24.20;99.90;;;;;;2585071;54;20967;31
2022/06/28 03:36:15;;;;;;;8.35;5.80;;;24.20;99.90;;;;;;2585140;54;20876;31
2022/06/28 03:38:51;;;;;;;7.47;5.93;;;24.20;99.90;;;;;;2603460;47;20022;31
2022/06/28 03:41:39;;;;;;;7.23;6.17;;;24.10;99.90;;;;;;2585001;54;20958;31
2022/06/28 03:44:17;;;;;;;7.03;6.10;;;24.00;99.90;;;;;;2603855;47;20779;31
2022/06/28 03:46:57;;;;;;;13.10;7.10;;;24.10;99.90;;;;;;2603311;47;20026;31
2022/06/28 03:49:49;;;;;;;;;;;23.90;99.90;;;;;;2585329;54;20136;31
2022/06/28 03:52:32;;;;;;;11.35;6.25;;;23.90;99.90;;;;;;2586992;47;19942;31
2022/06/28 03:55:45;;;;;;;7.30;6.57;;;23.90;99.90;;;;;;2585093;54;22415;31
2022/06/28 03:58:25;;;;;;;9.70;6.40;;;23.70;99.90;;;;;;2585075;54;20022;31
2022/06/28 04:00:56;;;;;;;7.70;6.90;;;23.60;99.90;;;;;;2584994;54;20049;31
2022/06/28 04:03:35;;;;;;;9.90;7.70;;;23.50;99.90;;;;;;2603880;47;20960;31
2022/06/28 04:06:10;;;;;;;8.55;6.78;;;23.50;99.90;;;;;;2584907;54;20185;31
2022/06/28 04:08:47;;;;;;;8.00;7.20;;;23.40;99.90;;;;;;2585163;54;20089;31
2022/06/28 04:11:22;;;;;;;11.00;8.10;;;23.20;99.90;;;;;;2585061;54;20892;31
2022/06/28 04:13:56;;;;;;;9.10;8.27;;;23.20;99.90;;;;;;2584218;54;20161;31
2022/06/28 04:16:32;;;;;;;8.85;8.15;;;23.20;99.90;;;;;;2585056;54;20970;31
2022/06/28 04:19:10;;;;;;;9.15;8.20;;;23.20;99.90;;;;;;2594978;47;20023;31
2022/06/28 04:21:56;;;;;;;8.65;7.75;;;23.20;99.90;;;;;;2603235;47;20022;31
2022/06/28 04:24:31;;;;;;;8.95;8.05;;;23.20;99.90;;;;;;2585059;54;21005;31
2022/06/28 04:27:13;;;;;;;8.85;8.15;;;23.10;99.90;;;;;;2585098;54;20026;31
2022/06/28 04:29:49;;;;;;;8.45;7.75;;;23.10;99.90;;;;;;2683014;39;22309;31
2022/06/28 04:32:50;;;;;;;8.70;7.80;;;23.10;99.90;;;;;;2584862;54;20026;31
2022/06/28 04:35:29;;;;;;;12.23;7.90;;;23.10;99.90;;;;;;2585325;54;22690;31
2022/06/28 04:38:06;;;;;;;9.95;8.50;;;23.10;99.90;;;;;;2603971;47;20053;31
2022/06/28 04:40:52;;;;;;;8.55;7.65;;;23.10;99.90;;;;;;2585933;54;20029;31
2022/06/28 04:43:40;;;;;;;9.02;8.23;;;23.10;99.90;;;;;;2585331;54;20088;31
2022/06/28 04:46:19;;;;;;;9.25;7.40;;;23.10;99.90;;;;;;2585575;54;20126;31
2022/06/28 04:48:55;;;;;;;8.50;7.70;;;23.10;99.90;;;;;;2585924;54;20112;31
2022/06/28 04:51:45;;;;;;;8.30;7.60;;;23.10;99.90;;;;;;2585802;54;20882;31
2022/06/28 04:54:29;;;;;;;14.00;7.75;;;23.20;99.90;;;;;;2604245;46;20968;31
2022/06/28 04:57:23;;;;;;;11.87;7.90;;;23.20;99.90;;;;;;2585820;54;20053;31
2022/06/28 05:00:14;;;;;;;12.32;8.68;;;23.30;99.90;;;;;;2585496;54;20030;31
2022/06/28 05:02:54;;;;;;;8.50;7.70;;;23.30;99.90;;;;;;2773173;31;22558;31
2022/06/28 05:05:48;;;;;;;8.15;7.45;;;23.30;99.90;;;;;;2585735;54;20032;31
2022/06/28 05:08:26;;;;;;;8.40;7.32;;;23.30;99.90;;;;;;2683909;39;21039;31
2022/06/28 05:11:07;;;;;;;12.50;7.47;;;23.30;99.90;;;;;;2585558;54;20949;31
2022/06/28 05:13:48;;;;;;;10.38;7.80;;;23.30;99.90;;;;;;2585865;54;20254;31
2022/06/28 05:16:24;;;;;;;8.63;7.25;;;23.30;99.90;;;;;;2604192;46;20918;31
2022/06/28 05:19:00;;;;;;;12.35;7.57;;;23.30;99.90;;;;;;2585428;54;20030;31
2022/06/28 05:21:44;;;;;;;8.27;7.38;;;23.30;99.90;;;;;;2585518;54;20098;31
2022/06/28 05:24:22;;;;;;;13.50;7.23;;;23.40;99.90;;;;;;2682382;39;20400;31
2022/06/28 05:27:08;;;;;;;12.07;8.00;;;23.40;99.90;;;;;;2585534;54;20976;31
2022/06/28 05:29:46;;;;;;;11.13;8.93;;;23.50;99.90;;;;;;2585631;54;20860;31
2022/06/28 05:32:20;;;;;;;9.10;7.95;;;23.50;99.90;;;;;;2585738;54;20053;31
2022/06/28 05:34:55;;;;;;;8.80;8.00;;;23.60;99.90;;;;;;2585253;54;20893;31
2022/06/28 05:37:30;;;;;;;8.80;7.90;;;23.70;99.90;;;;;;2585737;54;21425;31
2022/06/28 05:40:07;;;;;;;8.07;7.32;;;23.70;99.90;;;;;;2585742;54;20026;31
2022/06/28 05:42:44;;;;;;;11.10;7.73;;;23.80;99.90;;;;;;2585391;54;20860;31
2022/06/28 05:45:18;;;;;;;8.90;8.00;;;23.90;99.90;;;;;;2683267;39;20334;31
2022/06/28 05:47:51;;;;;;;9.60;7.20;;;23.90;99.90;;;;;;2603660;46;20026;31
2022/06/28 05:50:25;;;;;;;9.98;8.43;;;23.90;99.90;;;;;;2585462;54;20030;31
2022/06/28 05:53:00;;;;;;;8.30;7.60;;;23.90;99.90;;;;;;2603811;46;20030;31
2022/06/28 05:55:40;;;;;;;8.10;6.60;;;23.70;99.90;;;;;;2604060;46;20926;31
2022/06/28 05:58:13;;;;;;;15.60;8.43;;;23.70;99.90;;;;;;2683385;39;21520;31
2022/06/28 06:00:49;;;;;;;8.95;8.10;;;23.70;99.90;;;;;;2585742;54;20899;31
2022/06/28 06:03:23;;;;;;;7.43;6.70;;;23.60;99.90;;;;;;2585276;54;20751;31
2022/06/28 06:05:59;;;;;;;9.88;7.90;;;23.60;99.90;;;;;;2594464;46;20501;31
2022/06/28 06:08:35;;;;;;;10.00;8.20;;;23.60;99.90;;;;;;2585589;54;20034;31
2022/06/28 06:11:13;;;;;;;8.98;8.18;;;23.60;99.90;;;;;;2585446;54;20764;31
2022/06/28 06:13:52;;;;;;;8.70;7.90;;;23.50;99.90;;;;;;2585618;54;20026;31
2022/06/28 06:16:27;;;;;;;8.57;7.83;;;23.50;99.90;;;;;;2585427;54;20806;31
2022/06/28 06:19:05;;;;;;;8.45;7.65;;;23.40;99.90;;;;;;2585401;54;20049;31
2022/06/28 06:21:40;;;;;;;8.45;7.60;;;23.30;99.90;;;;;;2585501;54;20902;31
2022/06/28 06:24:18;;;;;;;10.38;8.00;;;23.40;99.90;;;;;;2604014;46;20871;31
2022/06/28 06:27:15;;;;;;;7.97;7.22;;;23.30;99.90;;;;;;2585297;54;20033;31
2022/06/28 06:29:50;;;;;;;12.80;7.60;;;23.20;99.90;;;;;;2585341;54;20863;31
2022/06/28 06:32:32;;;;;;;8.48;7.68;;;23.10;99.90;;;;;;2585516;54;20604;31
2022/06/28 06:35:17;;;;;;;12.55;7.15;;;23.20;99.90;;;;;;2585669;54;20854;31
2022/06/28 06:37:53;;;;;;;7.97;6.53;;;23.20;99.90;;;;;;2585464;54;21141;31
2022/06/28 06:40:28;;;;;;;9.73;6.43;;;23.20;99.90;;;;;;2584480;54;20036;31
2022/06/28 06:43:05;;;;;;;7.75;7.15;;;23.30;99.90;;;;;;2603740;46;21334;31
2022/06/28 06:45:49;;;;;;;6.88;6.18;;;23.30;99.90;;;;;;2585413;54;20030;31
2022/06/28 06:48:29;;;;;;;6.43;5.83;;;23.20;99.90;;;;;;2585093;54;20900;31
2022/06/28 06:51:05;;;;;;;6.88;6.18;;;23.20;99.90;;;;;;2603564;46;21010;31
2022/06/28 06:53:43;;;;;;;6.40;5.80;;;23.20;99.90;;;;;;2603498;46;21147;31
2022/06/28 06:56:24;;;;;;;6.00;5.50;;;23.00;99.90;;;;;;2585302;54;21210;31
2022/06/28 06:59:03;;;;;;;6.63;5.93;;;23.10;99.90;;;;;;2584843;54;20919;31
2022/06/28 07:01:40;;;;;;;6.10;5.60;;;23.10;99.90;;;;;;2584487;54;20937;31
2022/06/28 07:04:22;;;;;;;5.75;5.25;;;23.00;99.90;;;;;;2702067;39;21054;31
2022/06/28 07:07:08;;;;;;;7.60;4.65;;;23.10;99.90;;;;;;2584224;54;20958;31
2022/06/28 07:09:48;;;;;;;6.57;4.67;;;23.10;99.90;;;;;;2584200;54;20058;31
2022/06/28 07:12:25;;;;;;;7.37;4.27;;;23.20;99.90;;;;;;2584279;54;21000;31
2022/06/28 07:15:03;;;;;;;5.35;4.25;;;23.30;99.90;;;;;;2585368;54;20964;31
2022/06/28 07:17:48;;;;;;;5.38;4.25;;;23.40;99.90;;;;;;2585290;54;20898;31
2022/06/28 07:20:28;;;;;;;4.38;2.95;;;23.40;99.90;;;;;;2603622;46;20923;31
2022/06/28 07:25:44;;;;;;;3.80;3.40;;;23.60;99.90;;;;;;2584813;54;20752;31
2022/06/28 07:28:26;;;;;;;5.10;3.45;;;23.60;99.90;;;;;;2753966;31;20513;31
2022/06/28 07:31:07;;;;;;;6.43;3.13;;;23.70;99.90;;;;;;2585177;54;20803;31
2022/06/28 07:33:48;;;;;;;6.00;4.10;;;23.70;99.90;;;;;;2682905;39;20383;31
2022/06/28 07:36:28;;;;;;;3.78;3.15;;;23.80;99.90;;;;;;2585126;54;20764;31
2022/06/28 07:39:06;;;;;;;3.83;3.45;;;23.90;99.90;;;;;;2585178;54;20033;31
2022/06/28 07:42:01;;;;;;;7.40;3.47;;;23.80;99.90;;;;;;2585398;54;20626;31
2022/06/28 07:44:56;;;;;;;15.80;3.90;;;23.90;99.90;;;;;;2585191;54;20932;31
2022/06/28 07:47:38;;;;;;;3.33;3.03;;;23.90;99.90;;;;;;2584768;54;20915;31
2022/06/28 07:53:03;;;;;;;5.93;3.13;;;24.00;99.90;;;;;;2683156;39;22345;31
2022/06/28 07:55:58;;;;;;;4.90;4.40;;;24.00;99.90;;;;;;2683053;39;21417;31
2022/06/28 07:58:40;;;;;;;5.13;4.40;;;24.00;99.90;;;;;;2603454;47;20030;31
2022/06/28 08:01:26;;;;;;;4.47;4.07;;;23.90;99.90;;;;;;2603587;47;20109;31
2022/06/28 08:04:04;;;;;;;6.03;4.10;;;23.90;99.90;;;;;;2584474;54;21154;31
2022/06/28 08:06:38;;;;;;;7.88;3.75;;;23.90;99.90;;;;;;2584212;54;20030;31
2022/06/28 08:09:17;;;;;;;3.92;3.08;;;24.00;99.90;;;;;;2584847;54;20057;31
2022/06/28 08:11:55;;;;;;;4.80;2.85;;;24.00;99.90;;;;;;2585491;54;19935;31
2022/06/28 08:14:29;;;;;;;4.00;2.50;;;24.00;99.90;;;;;;2584964;54;20038;31
2022/06/28 08:17:07;;;;;;;3.97;3.10;;;24.10;99.90;;;;;;2684010;39;22393;31
2022/06/28 08:19:45;;;;;;;4.10;2.90;;;24.10;99.90;;;;;;2585946;54;21223;31
2022/06/28 08:22:22;;;;;;;3.35;3.00;;;24.20;99.90;;;;;;2584769;54;20934;31
2022/06/28 08:24:58;;;;;;;5.30;3.33;;;24.30;99.90;;;;;;2584850;54;20981;31
2022/06/28 08:27:43;;;;;;;4.35;3.10;;;24.40;99.90;;;;;;2585368;54;20914;31
2022/06/28 08:30:20;;;;;;;4.40;2.80;;;24.60;99.90;;;;;;2702245;39;22405;31
2022/06/28 08:33:02;;;;;;;4.80;3.40;;;24.60;99.90;;;;;;2584721;54;20026;31
2022/06/28 08:35:49;;;;;;;3.05;2.75;;;24.90;99.90;;;;;;2585624;54;20782;31
2022/06/28 08:38:32;;;;;;;4.53;2.72;;;25.00;99.90;;;;;;2585871;54;20023;31
2022/06/28 08:41:07;;;;;;;4.00;2.60;;;25.20;99.90;;;;;;2585762;54;20030;31
2022/06/28 08:43:45;;;;;;;3.65;3.35;;;25.20;99.90;;;;;;2585559;54;20031;31
2022/06/28 08:46:27;;;;;;;4.40;3.58;;;25.10;99.90;;;;;;2585640;54;20023;31
2022/06/28 08:49:06;;;;;;;5.28;3.70;;;25.00;99.90;;;;;;2604169;46;20898;31
2022/06/28 08:51:47;;;;;;;4.83;4.03;;;25.00;99.90;;;;;;2603896;46;20022;31
2022/06/28 08:54:20;;;;;;;8.37;4.77;;;24.90;99.90;;;;;;2604108;46;21191;31
2022/06/28 08:56:59;;;;;;;6.80;5.28;;;24.80;99.90;;;;;;2585669;54;21145;31
2022/06/28 08:59:36;;;;;;;6.72;5.22;;;24.70;99.90;;;;;;2584583;54;20120;31
2022/06/28 09:02:23;;;;;;;6.80;5.80;;;24.60;99.90;;;;;;2585447;54;20048;31
2022/06/28 09:05:01;;;;;;;6.55;5.95;;;24.50;99.90;;;;;;2585690;54;20034;31
2022/06/28 09:07:44;;;;;;;5.47;4.97;;;24.40;99.90;;;;;;2585673;54;20049;31
2022/06/28 09:10:20;;;;;;;5.85;4.90;;;24.20;99.90;;;;;;2585661;54;20895;31
2022/06/28 09:13:20;;;;;;;4.82;4.40;;;24.10;99.90;;;;;;2585592;54;20026;31
2022/06/28 09:16:01;;;;;;;5.55;4.65;;;24.00;99.90;;;;;;2604151;46;20839;31
2022/06/28 09:18:47;;;;;;;4.63;4.10;;;24.00;99.90;;;;;;2604295;46;20030;31
2022/06/28 09:21:21;;;;;;;4.38;3.97;;;23.90;99.90;;;;;;2604259;46;20927;31
2022/06/28 09:24:01;;;;;;;4.32;3.92;;;23.90;99.90;;;;;;2585564;54;20951;31
2022/06/28 09:26:34;;;;;;;7.50;3.93;;;23.90;99.90;;;;;;2593251;46;21956;31
2022/06/28 09:29:15;;;;;;;5.22;4.32;;;23.80;99.90;;;;;;2585380;54;19934;31
2022/06/28 09:31:50;;;;;;;6.10;4.17;;;23.80;99.90;;;;;;2584847;54;20896;31
2022/06/28 09:34:24;;;;;;;6.82;4.78;;;23.80;99.90;;;;;;2585792;54;20919;31
2022/06/28 09:36:59;;;;;;;4.88;4.47;;;23.80;99.90;;;;;;2754774;31;22507;31
2022/06/28 09:39:35;;;;;;;4.33;3.93;;;23.80;99.90;;;;;;2585499;54;20027;31
2022/06/28 09:42:10;;;;;;;4.97;4.10;;;23.90;99.90;;;;;;2603556;46;20917;31
2022/06/28 09:44:53;;;;;;;5.55;4.20;;;24.00;99.90;;;;;;2585403;54;20899;31
2022/06/28 09:47:28;;;;;;;6.97;5.05;;;24.10;99.90;;;;;;2585733;54;21026;31
2022/06/28 09:50:23;;;;;;;13.23;4.93;;;24.30;99.90;;;;;;2585459;54;20881;31
2022/06/28 09:52:58;;;;;;;6.35;4.10;;;24.60;99.90;;;;;;2585636;54;20033;31
2022/06/28 09:55:36;;;;;;;;;;;24.80;99.90;;;;;;2584665;54;20906;31
2022/06/28 09:58:10;;;;;;;4.10;3.70;;;25.10;99.90;;;;;;2585722;54;19934;31
2022/06/28 10:00:45;;;;;;;3.40;3.10;;;25.30;99.90;;;;;;2599646;46;20068;31
2022/06/28 10:03:22;;;;;;;3.25;2.70;;;25.70;99.90;;;;;;2584364;54;20242;31
2022/06/28 10:05:57;;;;;;;16.95;4.45;;;25.90;99.90;;;;;;2585193;54;20979;31
2022/06/28 10:08:36;;;;;;;;;;;26.10;99.90;;;;;;2584625;54;20058;31
2022/06/28 10:11:14;;;;;;;6.05;3.30;;;26.60;99.90;;;;;;2603402;46;20009;31
2022/06/28 10:17:04;;;;;;;3.67;2.90;;;26.80;99.90;;;;;;2585093;54;20104;31
2022/06/28 10:19:38;;;;;;;2.90;2.70;;;26.80;99.90;;;;;;2585420;54;20139;31
2022/06/28 10:22:13;;;;;;;4.13;3.72;;;26.90;99.90;;;;;;2585197;54;20038;31
2022/06/28 10:24:55;;;;;;;;;;;27.00;99.90;;;;;;2585564;54;20053;31
2022/06/28 10:27:31;;;;;;;6.18;3.45;;;27.10;99.90;;;;;;2585080;54;19939;31
2022/06/28 10:30:27;;;;;;;3.40;3.05;;;27.10;99.90;;;;;;2585198;54;21004;31
2022/06/28 10:33:06;;;;;;;4.53;3.25;;;27.20;99.90;;;;;;2585332;54;20942;31
2022/06/28 10:36:19;;;;;;;6.47;3.70;;;27.50;99.90;;;;;;2584970;54;20031;31
2022/06/28 10:39:28;;;;;;;5.55;3.45;;;27.60;99.90;;;;;;2585365;54;20800;31
2022/06/28 10:42:13;;;;;;;3.50;3.10;;;27.80;99.90;;;;;;2585041;54;20030;31
2022/06/28 10:44:51;;;;;;;4.60;3.60;;;27.80;99.90;;;;;;2585117;54;20085;31
2022/06/28 10:47:26;;;;;;;4.20;3.80;;;27.60;99.90;;;;;;2583975;54;20122;31
2022/06/28 10:50:08;;;;;;;6.90;3.30;;;27.60;99.90;;;;;;2584054;54;20988;31
2022/06/28 10:52:41;;;;;;;4.28;3.88;;;27.50;99.90;;;;;;2584774;54;20768;31
2022/06/28 10:55:27;;;;;;;6.30;3.85;;;27.50;99.90;;;;;;2585177;54;20117;31
2022/06/28 10:58:10;;;;;;;5.80;3.45;;;27.50;99.90;;;;;;2584928;54;20853;31
2022/06/28 11:00:57;;;;;;;5.57;3.92;;;27.50;99.90;;;;;;2585212;54;20058;31
2022/06/28 11:03:34;;;;;;;4.45;3.95;;;27.50;99.90;;;;;;2585267;54;20040;31
2022/06/28 11:06:08;;;;;;;7.05;4.20;;;27.40;99.90;;;;;;2603157;46;20897;31
2022/06/28 11:08:49;;;;;;;5.85;4.38;;;27.40;99.90;;;;;;2585138;54;20826;31
2022/06/28 11:11:22;;;;;;;5.95;4.15;;;27.30;99.90;;;;;;2603577;46;20901;31
2022/06/28 11:14:24;;;;;;;4.80;4.40;;;27.10;99.90;;;;;;2585078;54;20038;31
2022/06/28 11:17:03;;;;;;;5.45;4.00;;;27.20;99.90;;;;;;2585056;54;20246;31
2022/06/28 11:19:50;;;;;;;4.95;4.20;;;27.20;99.90;;;;;;2585196;54;21042;31
2022/06/28 11:22:33;;;;;;;11.30;4.20;;;27.10;99.90;;;;;;2584156;54;20936;31
2022/06/28 11:25:09;;;;;;;3.80;3.50;;;27.20;99.90;;;;;;2603298;46;20089;31
2022/06/28 11:27:46;;;;;;;4.13;3.72;;;27.20;99.90;;;;;;2584483;54;20032;31
2022/06/28 11:30:23;;;;;;;3.58;3.28;;;27.30;99.90;;;;;;2584923;54;20026;31
2022/06/28 11:33:00;;;;;;;26.97;4.63;;;27.30;99.90;;;;;;2584051;54;20896;31
2022/06/28 11:35:37;;;;;;;9.77;3.95;;;27.50;99.90;;;;;;2584991;54;20896;31
2022/06/28 11:38:16;;;;;;;3.70;3.40;;;27.60;99.90;;;;;;2603234;46;20897;31
2022/06/28 11:40:54;;;;;;;3.88;3.13;;;27.80;99.90;;;;;;2584901;54;20970;31
2022/06/28 11:43:30;;;;;;;3.47;3.10;;;27.90;99.90;;;;;;2584868;54;21018;31
2022/06/28 11:46:07;;;;;;;5.43;3.72;;;28.00;99.90;;;;;;2584847;54;20748;31
2022/06/28 11:48:48;;;;;;;4.80;2.85;;;27.90;99.90;;;;;;2585763;54;20923;31
2022/06/28 11:51:31;;;;;;;5.10;3.40;;;27.90;99.90;;;;;;2584863;54;21030;31
2022/06/28 11:54:10;;;;;;;4.18;3.53;;;28.00;99.90;;;;;;2584699;54;20036;31
2022/06/28 11:56:47;;;;;;;4.03;2.77;;;28.10;99.90;;;;;;2585680;54;20026;31
2022/06/28 11:59:58;;;;;;;3.25;3.00;;;28.20;99.90;;;;;;2585677;54;20027;31
2022/06/28 12:03:03;;;;;;;6.13;3.05;;;28.40;99.90;;;;;;2585149;54;20023;31
2022/06/28 12:08:42;;;;;;;4.28;2.95;;;28.80;99.90;;;;;;2604098;46;20946;31
2022/06/28 12:11:31;;;;;;;3.55;2.45;;;28.90;99.90;;;;;;2603615;46;20026;31
2022/06/28 12:14:12;;;;;;;33.30;5.28;;;29.00;99.90;;;;;;2585927;54;20811;31
2022/06/28 12:16:49;;;;;;;4.28;3.53;;;29.10;99.90;;;;;;2585580;54;20825;31
2022/06/28 12:19:28;;;;;;;3.40;3.10;;;29.30;99.90;;;;;;2585549;54;20921;31
2022/06/28 12:22:03;;;;;;;4.57;3.17;;;29.20;99.90;;;;;;2585523;54;20962;31
2022/06/28 12:24:41;;;;;;;;;;;29.10;99.90;;;;;;2585836;54;20768;31
2022/06/28 12:27:18;;;;;;;4.30;3.13;;;28.90;99.90;;;;;;2585889;54;20748;31
2022/06/28 12:29:54;;;;;;;3.10;2.80;;;28.80;99.90;;;;;;2585536;54;20033;31
2022/06/28 12:32:27;;;;;;;3.83;3.40;;;28.70;99.90;;;;;;2585785;54;20867;31
2022/06/28 12:35:25;;;;;;;7.70;3.35;;;28.50;99.90;;;;;;2604088;46;21963;31
2022/06/28 12:38:00;;;;;;;2.70;2.50;;;28.40;99.90;;;;;;2585528;54;20062;31
2022/06/28 12:40:34;;;;;;;3.20;2.90;;;28.30;99.90;;;;;;2604057;46;20153;31
2022/06/28 12:43:14;;;;;;;4.10;2.95;;;28.20;99.90;;;;;;2585653;54;22616;31
2022/06/28 12:45:51;;;;;;;4.57;3.05;;;28.10;99.90;;;;;;2589941;46;20085;31
2022/06/28 12:48:27;;;;;;;5.87;3.80;;;28.10;99.90;;;;;;2585614;54;20069;31
2022/06/28 12:51:02;;;;;;;3.35;3.05;;;28.10;99.90;;;;;;2584757;54;20937;31
2022/06/28 12:53:37;;;;;;;3.00;2.70;;;28.10;99.90;;;;;;2585549;54;20033;31
2022/06/28 12:56:18;;;;;;;3.40;3.00;;;28.10;99.90;;;;;;2585597;54;20056;31
2022/06/28 12:58:57;;;;;;;3.15;2.95;;;28.00;99.90;;;;;;2585181;46;20956;31
2022/06/28 13:01:30;;;;;;;3.85;3.45;;;28.00;99.90;;;;;;2585495;54;20031;31
2022/06/28 13:04:06;;;;;;;4.15;3.55;;;28.00;99.90;;;;;;2585227;54;20719;31
2022/06/28 13:06:47;;;;;;;3.67;2.95;;;27.90;99.90;;;;;;2585454;54;20062;31
2022/06/28 13:09:21;;;;;;;3.60;3.30;;;27.80;99.90;;;;;;2585504;54;21947;31
2022/06/28 13:11:57;;;;;;;3.75;3.45;;;27.70;99.90;;;;;;2604073;46;22491;31
2022/06/28 13:14:35;;;;;;;5.00;3.65;;;27.60;99.90;;;;;;2585545;54;22004;31
2022/06/28 13:17:12;;;;;;;4.75;3.70;;;27.60;99.90;;;;;;2585183;54;20059;31
2022/06/28 13:19:45;;;;;;;4.10;3.80;;;27.60;99.90;;;;;;2603550;46;20986;31
2022/06/28 13:22:39;;;;;;;4.03;3.72;;;27.50;99.90;;;;;;2585635;54;20876;31
2022/06/28 13:25:17;;;;;;;5.88;4.07;;;27.50;99.90;;;;;;2585559;54;20895;31
2022/06/28 13:28:02;;;;;;;5.88;3.58;;;27.50;99.90;;;;;;2584259;54;20599;31
2022/06/28 13:30:44;;;;;;;4.18;3.78;;;27.50;99.90;;;;;;2585224;54;20915;31
2022/06/28 13:33:18;;;;;;;5.10;4.00;;;27.40;99.90;;;;;;2604147;46;20031;31
2022/06/28 13:35:57;;;;;;;4.05;3.60;;;27.40;99.90;;;;;;2585212;54;19942;31
2022/06/28 13:38:30;;;;;;;3.97;3.45;;;27.40;99.90;;;;;;2603714;46;20980;31
2022/06/28 13:41:05;;;;;;;4.18;3.80;;;27.40;99.90;;;;;;2585483;54;20030;31
2022/06/28 13:43:40;;;;;;;3.70;3.40;;;27.30;99.90;;;;;;2585341;54;20908;31
2022/06/28 13:46:18;;;;;;;3.90;3.60;;;27.30;99.90;;;;;;2682267;39;21332;31
2022/06/28 13:48:54;;;;;;;4.53;3.77;;;27.20;99.90;;;;;;2603176;46;20105;31
2022/06/28 13:51:33;;;;;;;4.10;3.70;;;27.30;99.90;;;;;;2584212;54;20242;31
2022/06/28 13:54:08;;;;;;;4.88;4.47;;;27.30;99.90;;;;;;2584255;54;20034;31
2022/06/28 13:56:43;;;;;;;6.45;4.20;;;27.30;99.90;;;;;;2585287;54;20032;31
2022/06/28 13:59:21;;;;;;;20.25;4.40;;;27.40;99.90;;;;;;2603901;46;21084;31
2022/06/28 14:02:00;;;;;;;11.05;4.60;;;27.50;99.90;;;;;;2585013;54;20111;31
2022/06/28 14:04:33;;;;;;;3.85;3.45;;;27.50;99.90;;;;;;2585422;54;20026;31
2022/06/28 14:07:09;;;;;;;;;;;27.70;99.90;;;;;;2585592;54;20924;31
2022/06/28 14:09:44;;;;;;;3.80;3.50;;;27.80;99.90;;;;;;2600248;46;19934;31
2022/06/28 14:12:21;;;;;;;5.10;4.17;;;27.90;99.90;;;;;;2585235;54;19935;31
2022/06/28 14:14:56;;;;;;;6.10;4.10;;;28.10;99.90;;;;;;2585276;54;20036;31
2022/06/28 14:17:35;;;;;;;4.00;3.70;;;28.10;99.90;;;;;;2584313;54;20960;31
2022/06/28 14:22:42;;;;;;;4.28;3.90;;;28.10;99.90;;;;;;2585551;54;20030;31
2022/06/28 14:25:17;;;;;;;4.03;3.72;;;28.20;99.90;;;;;;2585073;54;20942;31
2022/06/28 14:27:51;;;;;;;4.95;3.75;;;28.20;99.90;;;;;;2585017;54;21054;31
2022/06/28 14:30:36;;;;;;;4.03;3.72;;;28.20;99.90;;;;;;2585197;54;20070;31